Time;durP1;ratioP1;P1;durP2;ratioP2;P2;SDS_P1;SDS_P2;PMS_P1;PMS_P2;Temp;Humidity;BMP_temperature;BMP_pressure;BME280_temperature;BME280_humidity;BME280_pressure;Samples;Min_cycle;Max_cycle;Signal;HPM_P1;HPM_P2
2022/03/31 00:00:56;;;;;;;;;49.25;40.50;;;;;;;;5126859;27;45238;-80
2022/03/31 00:03:21;;;;;;;;;43.50;36.50;;;;;;;;5123931;27;45360;-79
2022/03/31 00:05:50;;;;;;;;;51.00;42.00;;;;;;;;5125304;27;45230;-80
2022/03/31 00:08:16;;;;;;;;;49.50;39.25;;;;;;;;5125175;27;45335;-80
2022/03/31 00:10:41;;;;;;;;;51.75;42.75;;;;;;;;5126557;27;45328;-80
2022/03/31 00:13:08;;;;;;;;;47.25;37.50;;;;;;;;5125056;27;45239;-80
2022/03/31 00:15:33;;;;;;;;;49.50;40.00;;;;;;;;5116625;27;45438;-80
2022/03/31 00:17:59;;;;;;;;;45.75;38.50;;;;;;;;5104986;27;46151;-80
2022/03/31 00:20:25;;;;;;;;;42.75;37.25;;;;;;;;5105518;27;45380;-79
2022/03/31 00:22:50;;;;;;;;;49.75;41.00;;;;;;;;5105351;27;45208;-80
2022/03/31 00:25:15;;;;;;;;;45.75;37.50;;;;;;;;5102954;27;45258;-80
2022/03/31 00:27:41;;;;;;;;;46.00;40.00;;;;;;;;5102925;27;45409;-79
2022/03/31 00:30:08;;;;;;;;;41.00;35.75;;;;;;;;5101956;27;45389;-80
2022/03/31 00:32:33;;;;;;;;;46.25;37.75;;;;;;;;5101047;27;45439;-81
2022/03/31 00:34:58;;;;;;;;;48.50;39.25;;;;;;;;5100804;27;47228;-80
2022/03/31 00:37:24;;;;;;;;;47.25;37.25;;;;;;;;5104017;27;46325;-80
2022/03/31 00:39:49;;;;;;;;;46.25;39.50;;;;;;;;5103255;27;45315;-80
2022/03/31 00:42:15;;;;;;;;;42.50;35.75;;;;;;;;5101952;27;45448;-78
2022/03/31 00:44:41;;;;;;;;;49.50;38.50;;;;;;;;5101799;27;45376;-81
2022/03/31 00:47:07;;;;;;;;;46.00;36.00;;;;;;;;5100856;27;46270;-81
2022/03/31 00:49:34;;;;;;;;;46.75;38.25;;;;;;;;5103124;27;45432;-80
2022/03/31 00:51:59;;;;;;;;;44.75;38.00;;;;;;;;5102182;27;45310;-78
2022/03/31 00:54:27;;;;;;;;;44.00;38.50;;;;;;;;5102649;27;45269;-78
2022/03/31 00:56:53;;;;;;;;;41.75;36.75;;;;;;;;5101845;27;47276;-77
2022/03/31 00:59:19;;;;;;;;;45.50;38.00;;;;;;;;5100956;27;45377;-80
2022/03/31 01:01:45;;;;;;;;;46.00;37.25;;;;;;;;5103097;27;45871;-78
2022/03/31 01:04:11;;;;;;;;;47.00;37.50;;;;;;;;5102222;27;45357;-80
2022/03/31 01:06:36;;;;;;;;;41.75;35.75;;;;;;;;5105206;27;45300;-80
2022/03/31 01:09:02;;;;;;;;;43.50;37.00;;;;;;;;5102922;27;45370;-81
2022/03/31 01:11:29;;;;;;;;;45.75;36.00;;;;;;;;5103660;27;45277;-80
2022/03/31 01:13:55;;;;;;;;;44.50;36.50;;;;;;;;5101974;27;46405;-81
2022/03/31 01:16:20;;;;;;;;;45.25;35.75;;;;;;;;5117436;27;47296;-80
2022/03/31 01:18:45;;;;;;;;;35.25;33.00;;;;;;;;5122764;27;45299;-80
2022/03/31 01:21:10;;;;;;;;;40.50;35.75;;;;;;;;5125043;27;45278;-81
2022/03/31 01:23:36;;;;;;;;;45.25;36.75;;;;;;;;5123843;27;45339;-81
2022/03/31 01:26:05;;;;;;;;;46.25;36.00;;;;;;;;5122905;27;48237;-80
2022/03/31 01:28:30;;;;;;;;;42.75;36.50;;;;;;;;5121407;27;45789;-80
2022/03/31 01:30:56;;;;;;;;;41.50;35.25;;;;;;;;5124292;27;45368;-80
2022/03/31 01:33:21;;;;;;;;;45.50;38.25;;;;;;;;5122430;27;45388;-80
2022/03/31 01:35:46;;;;;;;;;41.00;35.25;;;;;;;;5123219;27;48414;-80
2022/03/31 01:38:11;;;;;;;;;41.25;34.75;;;;;;;;5122256;27;45305;-80
2022/03/31 01:40:37;;;;;;;;;39.75;35.50;;;;;;;;5124244;27;45291;-80
2022/03/31 01:43:02;;;;;;;;;45.00;37.00;;;;;;;;5120961;27;46328;-80
2022/03/31 01:45:27;;;;;;;;;27.25;24.75;;;;;;;;5122637;27;47439;-80
2022/03/31 01:47:54;;;;;;;;;40.25;34.75;;;;;;;;5122445;27;45381;-80
2022/03/31 01:50:19;;;;;;;;;40.75;35.00;;;;;;;;5123285;27;45352;-80
2022/03/31 01:52:44;;;;;;;;;40.75;34.25;;;;;;;;5122795;27;45432;-77
2022/03/31 01:55:10;;;;;;;;;46.75;37.25;;;;;;;;5121143;27;45228;-81
2022/03/31 01:57:35;;;;;;;;;36.25;33.00;;;;;;;;5121882;27;45243;-80
2022/03/31 02:00:02;;;;;;;;;38.25;31.50;;;;;;;;5122093;27;45336;-79
2022/03/31 02:02:28;;;;;;;;;40.00;33.75;;;;;;;;5121219;27;45312;-80
2022/03/31 02:04:53;;;;;;;;;41.75;35.50;;;;;;;;5121132;27;46015;-80
2022/03/31 02:07:18;;;;;;;;;41.25;35.25;;;;;;;;5119552;27;45373;-80
2022/03/31 02:09:44;;;;;;;;;45.25;36.50;;;;;;;;5121756;27;45397;-80
2022/03/31 02:12:09;;;;;;;;;44.00;38.00;;;;;;;;5122610;27;45557;-81
2022/03/31 02:14:37;;;;;;;;;36.25;33.50;;;;;;;;5121357;27;47282;-81
2022/03/31 02:17:09;;;;;;;;;39.50;35.00;;;;;;;;5101163;27;45324;-80
2022/03/31 02:19:35;;;;;;;;;43.00;34.50;;;;;;;;5099953;27;45357;-80
2022/03/31 02:22:00;;;;;;;;;46.50;38.50;;;;;;;;5101284;27;45284;-80
2022/03/31 02:24:26;;;;;;;;;35.75;32.75;;;;;;;;5100717;27;47277;-81
2022/03/31 02:26:51;;;;;;;;;39.00;34.00;;;;;;;;5101619;27;45324;-81
2022/03/31 02:29:17;;;;;;;;;32.75;30.50;;;;;;;;5100547;27;45343;-80
2022/03/31 02:31:43;;;;;;;;;39.75;35.50;;;;;;;;5098509;27;45451;-80
2022/03/31 02:34:08;;;;;;;;;40.00;34.25;;;;;;;;5098340;27;46039;-80
2022/03/31 02:36:33;;;;;;;;;43.50;37.25;;;;;;;;5101138;27;45250;-80
2022/03/31 02:38:58;;;;;;;;;49.25;41.50;;;;;;;;5100251;27;45440;-77
2022/03/31 02:41:24;;;;;;;;;42.00;37.00;;;;;;;;5099821;27;45924;-80
2022/03/31 02:43:49;;;;;;;;;49.25;41.00;;;;;;;;5100229;27;45309;-80
2022/03/31 02:46:14;;;;;;;;;49.25;38.25;;;;;;;;5101710;27;45141;-80
2022/03/31 02:48:39;;;;;;;;;48.75;40.75;;;;;;;;5101050;27;45369;-80
2022/03/31 02:51:05;;;;;;;;;49.00;40.50;;;;;;;;5099417;27;46939;-80
2022/03/31 02:56:14;;;;;;;;;54.75;44.00;;;;;;;;5100925;27;45283;-80
2022/03/31 02:58:39;;;;;;;;;53.00;44.00;;;;;;;;5100367;27;45236;-80
2022/03/31 03:01:04;;;;;;;;;50.75;40.75;;;;;;;;5100715;27;45509;-80
2022/03/31 03:03:32;;;;;;;;;50.75;39.75;;;;;;;;5099588;27;45333;-80
2022/03/31 03:05:57;;;;;;;;;58.00;45.25;;;;;;;;5099571;27;45267;-80
2022/03/31 03:08:23;;;;;;;;;50.75;43.25;;;;;;;;5102125;27;45474;-80
2022/03/31 03:10:48;;;;;;;;;58.00;45.50;;;;;;;;5102702;27;45333;-81
2022/03/31 03:13:17;;;;;;;;;55.25;42.75;;;;;;;;5102644;27;46282;-81
2022/03/31 03:15:42;;;;;;;;;57.75;44.25;;;;;;;;5112793;27;45431;-80
2022/03/31 03:18:08;;;;;;;;;51.50;41.75;;;;;;;;5123208;27;45437;-80
2022/03/31 03:20:33;;;;;;;;;55.25;44.75;;;;;;;;5122539;27;47369;-81
2022/03/31 03:22:58;;;;;;;;;58.75;45.25;;;;;;;;5123105;27;45245;-80
2022/03/31 03:25:24;;;;;;;;;61.25;47.00;;;;;;;;5122022;27;45245;-80
2022/03/31 03:27:49;;;;;;;;;53.75;43.25;;;;;;;;5122051;27;45520;-79
2022/03/31 03:30:18;;;;;;;;;60.75;47.25;;;;;;;;5123631;27;45513;-80
2022/03/31 03:32:43;;;;;;;;;56.00;45.25;;;;;;;;5123440;27;45331;-80
2022/03/31 03:35:09;;;;;;;;;58.00;46.50;;;;;;;;5123833;27;45312;-80
2022/03/31 03:37:35;;;;;;;;;61.50;48.75;;;;;;;;5122026;27;45403;-80
2022/03/31 03:40:04;;;;;;;;;60.25;46.50;;;;;;;;5123054;27;45302;-81
2022/03/31 03:42:30;;;;;;;;;59.50;48.00;;;;;;;;5122478;27;46115;-80
2022/03/31 03:44:56;;;;;;;;;60.00;47.25;;;;;;;;5122782;27;45272;-80
2022/03/31 03:47:21;;;;;;;;;56.25;47.00;;;;;;;;5123560;27;45301;-80
2022/03/31 03:49:47;;;;;;;;;59.25;47.25;;;;;;;;5122892;27;45414;-80
2022/03/31 03:52:12;;;;;;;;;61.00;47.25;;;;;;;;5122697;27;45797;-81
2022/03/31 03:54:37;;;;;;;;;59.00;47.50;;;;;;;;5122655;27;45350;-80
2022/03/31 03:57:02;;;;;;;;;59.75;47.00;;;;;;;;5121687;27;45336;-81
2022/03/31 03:59:28;;;;;;;;;60.25;48.25;;;;;;;;5122642;27;45440;-80
2022/03/31 04:01:53;;;;;;;;;68.25;51.00;;;;;;;;5123171;27;45506;-80
2022/03/31 04:04:18;;;;;;;;;55.25;46.25;;;;;;;;5123338;27;45422;-81
2022/03/31 04:06:44;;;;;;;;;57.75;46.00;;;;;;;;5122039;27;45454;-81
2022/03/31 04:09:09;;;;;;;;;60.75;49.00;;;;;;;;5121197;27;46023;-80
2022/03/31 04:11:34;;;;;;;;;63.00;49.25;;;;;;;;5123193;27;46034;-80
2022/03/31 04:13:59;;;;;;;;;64.25;49.00;;;;;;;;5122497;27;45386;-80
2022/03/31 04:16:25;;;;;;;;;63.50;50.50;;;;;;;;5105729;27;45370;-80
2022/03/31 04:18:50;;;;;;;;;60.75;49.75;;;;;;;;5101482;27;45361;-80
2022/03/31 04:21:15;;;;;;;;;61.75;48.00;;;;;;;;5101774;27;45473;-80
2022/03/31 04:23:40;;;;;;;;;61.75;48.25;;;;;;;;5100404;27;45422;-78
2022/03/31 04:26:06;;;;;;;;;65.25;51.25;;;;;;;;5100493;27;45305;-80
2022/03/31 04:28:31;;;;;;;;;65.50;51.50;;;;;;;;5101267;27;45399;-78
2022/03/31 04:30:56;;;;;;;;;59.00;48.25;;;;;;;;5100037;27;47539;-78
2022/03/31 04:33:21;;;;;;;;;61.50;48.75;;;;;;;;5101683;27;45337;-78
2022/03/31 04:35:47;;;;;;;;;58.50;47.00;;;;;;;;5099971;27;45363;-78
2022/03/31 04:38:12;;;;;;;;;59.75;47.00;;;;;;;;5099748;27;46743;-79
2022/03/31 04:40:37;;;;;;;;;63.50;49.50;;;;;;;;5101340;27;45359;-77
2022/03/31 04:43:02;;;;;;;;;63.25;51.75;;;;;;;;5100786;27;45271;-79
2022/03/31 04:45:27;;;;;;;;;55.75;42.75;;;;;;;;5101463;27;45253;-79
2022/03/31 04:47:53;;;;;;;;;61.75;49.00;;;;;;;;5100836;27;45279;-79
2022/03/31 04:50:18;;;;;;;;;63.25;50.25;;;;;;;;5099591;27;47155;-76
2022/03/31 04:52:44;;;;;;;;;65.75;50.25;;;;;;;;5099338;27;45288;-77
2022/03/31 04:55:09;;;;;;;;;62.00;51.25;;;;;;;;5099702;27;45289;-80
2022/03/31 04:57:34;;;;;;;;;62.50;49.00;;;;;;;;5100795;27;45297;-79
2022/03/31 04:59:59;;;;;;;;;60.00;47.75;;;;;;;;5100816;27;45322;-79
2022/03/31 05:02:25;;;;;;;;;65.25;48.50;;;;;;;;5099556;27;45834;-79
2022/03/31 05:04:50;;;;;;;;;60.25;47.50;;;;;;;;5100972;27;45219;-79
2022/03/31 05:07:15;;;;;;;;;57.00;47.00;;;;;;;;5100632;27;45457;-79
2022/03/31 05:09:41;;;;;;;;;56.75;45.25;;;;;;;;5100770;27;45286;-79
2022/03/31 05:12:07;;;;;;;;;62.00;49.75;;;;;;;;5100605;27;45231;-79
2022/03/31 05:14:32;;;;;;;;;57.25;47.00;;;;;;;;5092987;27;45244;-78
2022/03/31 05:16:58;;;;;;;;;63.50;50.75;;;;;;;;5104107;27;45610;-77
2022/03/31 05:19:24;;;;;;;;;65.25;52.00;;;;;;;;5085256;27;46111;-75
2022/03/31 05:21:49;;;;;;;;;62.25;49.00;;;;;;;;5082710;27;45650;-79
2022/03/31 05:24:14;;;;;;;;;61.25;50.00;;;;;;;;5088791;27;45386;-78
2022/03/31 05:26:39;;;;;;;;;64.00;50.75;;;;;;;;5092934;28;45471;-80
2022/03/31 05:29:05;;;;;;;;;62.00;47.00;;;;;;;;5082939;27;46567;-79
2022/03/31 05:31:30;;;;;;;;;58.75;47.75;;;;;;;;5079803;27;45261;-80
2022/03/31 05:33:55;;;;;;;;;55.00;44.50;;;;;;;;5100120;27;45385;-80
2022/03/31 05:36:20;;;;;;;;;59.50;47.75;;;;;;;;5100780;27;45429;-80
2022/03/31 05:38:45;;;;;;;;;57.50;46.75;;;;;;;;5101223;27;45538;-80
2022/03/31 05:41:11;;;;;;;;;56.00;45.75;;;;;;;;5103932;27;45459;-80
2022/03/31 05:43:36;;;;;;;;;59.75;45.75;;;;;;;;5100972;27;45411;-80
2022/03/31 05:46:01;;;;;;;;;65.75;53.00;;;;;;;;5104195;27;45376;-79
2022/03/31 05:48:27;;;;;;;;;62.75;50.00;;;;;;;;5103113;27;45348;-80
2022/03/31 05:50:53;;;;;;;;;59.50;47.75;;;;;;;;5100636;27;45358;-79
2022/03/31 05:53:19;;;;;;;;;59.75;50.00;;;;;;;;5099215;27;45326;-77
2022/03/31 05:55:45;;;;;;;;;57.25;46.00;;;;;;;;5084292;27;45409;-78
2022/03/31 05:58:10;;;;;;;;;62.25;50.25;;;;;;;;5078777;27;46065;-79
2022/03/31 06:00:36;;;;;;;;;62.50;49.50;;;;;;;;5078885;27;45148;-79
2022/03/31 06:03:01;;;;;;;;;64.00;50.50;;;;;;;;5079637;27;45198;-79
2022/03/31 06:05:26;;;;;;;;;62.25;50.00;;;;;;;;5078154;28;47129;-78
2022/03/31 06:07:52;;;;;;;;;58.50;47.00;;;;;;;;5079136;27;45331;-78
2022/03/31 06:10:18;;;;;;;;;57.00;47.25;;;;;;;;5079412;27;45211;-78
2022/03/31 06:12:43;;;;;;;;;62.00;48.25;;;;;;;;5079201;27;45675;-77
2022/03/31 06:15:09;;;;;;;;;62.25;49.50;;;;;;;;5089652;27;47099;-78
2022/03/31 06:17:35;;;;;;;;;61.50;48.00;;;;;;;;5120101;27;46242;-77
2022/03/31 06:20:00;;;;;;;;;61.75;48.50;;;;;;;;5120333;27;45386;-78
2022/03/31 06:22:25;;;;;;;;;66.25;52.00;;;;;;;;5118956;27;45223;-78
2022/03/31 06:24:50;;;;;;;;;64.75;49.00;;;;;;;;5120237;27;45548;-79
2022/03/31 06:27:16;;;;;;;;;66.50;50.25;;;;;;;;5118912;27;48114;-79
2022/03/31 06:29:42;;;;;;;;;60.00;48.25;;;;;;;;5120121;27;45363;-77
2022/03/31 06:32:07;;;;;;;;;63.00;50.75;;;;;;;;5119056;27;45301;-79
2022/03/31 06:34:33;;;;;;;;;60.50;48.75;;;;;;;;5120173;27;45556;-78
2022/03/31 06:36:58;;;;;;;;;62.50;49.25;;;;;;;;5119920;27;45362;-79
2022/03/31 06:39:23;;;;;;;;;67.50;52.00;;;;;;;;5119073;27;45390;-77
2022/03/31 06:41:48;;;;;;;;;60.50;48.00;;;;;;;;5121282;27;45334;-79
2022/03/31 06:44:16;;;;;;;;;67.50;52.25;;;;;;;;5123814;27;45344;-79
2022/03/31 06:46:41;;;;;;;;;64.25;50.00;;;;;;;;5125812;27;46073;-79
2022/03/31 06:49:07;;;;;;;;;69.00;52.25;;;;;;;;5123836;27;45371;-77
2022/03/31 06:51:32;;;;;;;;;69.50;53.00;;;;;;;;5125190;27;45272;-79
2022/03/31 06:53:59;;;;;;;;;67.50;54.25;;;;;;;;5126100;27;45601;-80
2022/03/31 06:56:27;;;;;;;;;64.25;51.25;;;;;;;;5126812;27;46174;-80
2022/03/31 06:58:52;;;;;;;;;67.75;53.50;;;;;;;;5124809;27;45689;-78
2022/03/31 07:01:18;;;;;;;;;69.75;53.50;;;;;;;;5123703;27;45356;-77
2022/03/31 07:03:43;;;;;;;;;73.00;55.00;;;;;;;;5128739;27;45482;-78
2022/03/31 07:06:08;;;;;;;;;67.75;54.00;;;;;;;;5128618;27;46185;-79
2022/03/31 07:08:34;;;;;;;;;66.75;53.50;;;;;;;;5127490;27;45329;-79
2022/03/31 07:11:00;;;;;;;;;64.75;53.50;;;;;;;;5124996;27;45356;-78
2022/03/31 07:13:25;;;;;;;;;66.00;53.00;;;;;;;;5123923;27;46485;-79
2022/03/31 07:15:50;;;;;;;;;68.00;53.00;;;;;;;;5114064;27;47992;-79
2022/03/31 07:18:16;;;;;;;;;69.25;53.00;;;;;;;;5105744;27;45340;-77
2022/03/31 07:20:41;;;;;;;;;68.50;53.50;;;;;;;;5102741;27;45321;-78
2022/03/31 07:23:06;;;;;;;;;65.50;50.75;;;;;;;;5103091;27;45353;-79
2022/03/31 07:25:32;;;;;;;;;63.50;50.75;;;;;;;;5106999;27;47515;-78
2022/03/31 07:27:57;;;;;;;;;65.00;49.25;;;;;;;;5107469;27;45279;-78
2022/03/31 07:30:23;;;;;;;;;62.25;49.00;;;;;;;;5108927;27;45341;-79
2022/03/31 07:32:50;;;;;;;;;65.00;51.00;;;;;;;;5105849;27;46239;-79
2022/03/31 07:35:16;;;;;;;;;62.25;51.00;;;;;;;;5106050;27;46584;-79
2022/03/31 07:37:41;;;;;;;;;66.75;52.75;;;;;;;;5104648;27;45316;-79
2022/03/31 07:40:07;;;;;;;;;65.75;53.00;;;;;;;;5104031;27;45281;-79
2022/03/31 07:42:32;;;;;;;;;59.75;48.00;;;;;;;;5103757;27;45294;-79
2022/03/31 07:44:57;;;;;;;;;61.00;45.25;;;;;;;;5102063;27;47137;-79
2022/03/31 07:47:22;;;;;;;;;59.25;46.75;;;;;;;;5102558;27;45388;-79
2022/03/31 07:49:49;;;;;;;;;66.00;49.50;;;;;;;;5102388;27;45329;-79
2022/03/31 07:52:14;;;;;;;;;62.00;48.50;;;;;;;;5101080;27;46515;-78
2022/03/31 07:54:40;;;;;;;;;63.75;50.25;;;;;;;;5101327;27;45753;-78
2022/03/31 07:57:05;;;;;;;;;60.50;47.75;;;;;;;;5101676;27;45384;-79
2022/03/31 07:59:33;;;;;;;;;61.25;48.75;;;;;;;;5101349;27;45298;-79
2022/03/31 08:01:59;;;;;;;;;65.00;49.75;;;;;;;;5100509;27;46229;-78
2022/03/31 08:04:24;;;;;;;;;58.25;44.75;;;;;;;;5101680;27;45353;-78
2022/03/31 08:06:50;;;;;;;;;58.50;46.25;;;;;;;;5096467;27;45364;-80
2022/03/31 08:09:20;;;;;;;;;62.50;48.75;;;;;;;;5086776;27;45275;-80
2022/03/31 08:11:45;;;;;;;;;57.75;45.25;;;;;;;;5081475;27;45370;-78
2022/03/31 08:14:11;;;;;;;;;62.75;49.00;;;;;;;;5080977;27;46108;-78
2022/03/31 08:16:36;;;;;;;;;60.25;49.00;;;;;;;;5085615;27;45370;-79
2022/03/31 08:19:01;;;;;;;;;64.00;52.25;;;;;;;;5081759;27;45303;-77
2022/03/31 08:21:26;;;;;;;;;55.25;44.75;;;;;;;;5080439;27;45289;-76
2022/03/31 08:23:52;;;;;;;;;62.25;49.50;;;;;;;;5080321;27;45202;-77
2022/03/31 08:26:17;;;;;;;;;56.50;45.00;;;;;;;;5081281;27;45377;-78
2022/03/31 08:28:42;;;;;;;;;59.00;48.75;;;;;;;;5081347;27;45497;-78
2022/03/31 08:31:07;;;;;;;;;53.25;42.25;;;;;;;;5079328;28;46332;-78
2022/03/31 08:33:32;;;;;;;;;52.00;43.25;;;;;;;;5081512;27;46102;-78
2022/03/31 08:35:58;;;;;;;;;52.00;44.00;;;;;;;;5081008;28;45270;-77
2022/03/31 08:38:23;;;;;;;;;51.75;43.25;;;;;;;;5080684;27;45459;-77
2022/03/31 08:40:49;;;;;;;;;49.75;41.00;;;;;;;;5080792;27;45240;-74
2022/03/31 08:43:14;;;;;;;;;48.75;39.75;;;;;;;;5079094;28;48104;-77
2022/03/31 08:45:40;;;;;;;;;51.25;42.50;;;;;;;;5079796;28;45809;-77
2022/03/31 08:48:06;;;;;;;;;47.00;38.00;;;;;;;;5080066;27;45305;-78
2022/03/31 08:50:33;;;;;;;;;46.00;37.50;;;;;;;;5078218;28;45972;-77
2022/03/31 08:52:58;;;;;;;;;45.50;37.50;;;;;;;;5080345;27;46276;-78
2022/03/31 08:55:23;;;;;;;;;47.75;38.25;;;;;;;;5078531;27;45308;-78
2022/03/31 08:57:51;;;;;;;;;45.50;37.25;;;;;;;;5080114;27;45278;-78
2022/03/31 09:00:17;;;;;;;;;52.00;40.75;;;;;;;;5080771;27;46049;-78
2022/03/31 09:02:52;;;;;;;;;42.50;35.00;;;;;;;;5080787;27;45305;-78
2022/03/31 09:05:17;;;;;;;;;41.25;34.50;;;;;;;;5085705;27;45358;-79
2022/03/31 09:07:51;;;;;;;;;42.50;35.50;;;;;;;;5082176;28;45389;-78
2022/03/31 09:10:24;;;;;;;;;40.50;37.50;;;;;;;;5086840;27;45298;-78
2022/03/31 09:12:49;;;;;;;;;35.00;30.50;;;;;;;;5083722;28;47282;-78
2022/03/31 09:15:15;;;;;;;;;32.00;28.50;;;;;;;;5093725;27;45255;-79
2022/03/31 09:17:40;;;;;;;;;26.00;23.25;;;;;;;;5124679;27;45510;-80
2022/03/31 09:20:06;;;;;;;;;29.75;28.75;;;;;;;;5131529;27;45220;-81
2022/03/31 09:22:42;;;;;;;;;26.50;24.75;;;;;;;;5125835;27;47200;-80
2022/03/31 09:25:08;;;;;;;;;30.25;27.00;;;;;;;;5128027;27;45314;-81
2022/03/31 09:27:34;;;;;;;;;21.00;21.00;;;;;;;;5125834;27;45458;-79
2022/03/31 09:30:06;;;;;;;;;21.75;21.75;;;;;;;;5126410;27;45531;-79
2022/03/31 09:32:31;;;;;;;;;16.25;13.75;;;;;;;;5126654;27;48365;-80
2022/03/31 09:35:05;;;;;;;;;20.50;19.00;;;;;;;;5133751;27;45151;-80
2022/03/31 09:37:31;;;;;;;;;23.25;22.00;;;;;;;;5114406;27;45594;-80
2022/03/31 09:39:56;;;;;;;;;22.75;17.75;;;;;;;;5089376;27;45482;-80
2022/03/31 09:42:21;;;;;;;;;18.25;14.75;;;;;;;;5079676;27;45272;-79
2022/03/31 09:44:55;;;;;;;;;20.50;17.50;;;;;;;;5079978;27;45412;-79
2022/03/31 09:47:20;;;;;;;;;19.00;18.50;;;;;;;;5086130;27;45195;-80
2022/03/31 09:49:51;;;;;;;;;14.00;14.00;;;;;;;;5081159;27;45248;-78
2022/03/31 09:52:16;;;;;;;;;22.00;18.25;;;;;;;;5078715;28;47313;-82
2022/03/31 09:54:41;;;;;;;;;18.00;15.00;;;;;;;;5081065;28;45976;-79
2022/03/31 09:57:08;;;;;;;;;18.00;15.75;;;;;;;;5078383;28;45400;-78
2022/03/31 09:59:34;;;;;;;;;15.00;14.75;;;;;;;;5080946;28;45522;-77
2022/03/31 10:02:00;;;;;;;;;18.00;17.75;;;;;;;;5079560;27;46194;-78
2022/03/31 10:04:26;;;;;;;;;16.50;16.00;;;;;;;;5080508;27;45673;-79
2022/03/31 10:06:51;;;;;;;;;16.00;16.00;;;;;;;;5079493;27;45296;-77
2022/03/31 10:09:17;;;;;;;;;14.75;12.50;;;;;;;;5078176;28;46986;-77
2022/03/31 10:11:44;;;;;;;;;18.00;15.00;;;;;;;;5077350;28;47564;-76
2022/03/31 10:14:15;;;;;;;;;17.50;15.50;;;;;;;;5079501;27;45386;-76
2022/03/31 10:16:44;;;;;;;;;17.75;15.50;;;;;;;;5115769;27;45270;-76
2022/03/31 10:19:09;;;;;;;;;13.75;13.75;;;;;;;;5123461;27;45371;-76
2022/03/31 10:21:35;;;;;;;;;15.50;15.50;;;;;;;;5122349;27;47378;-77
2022/03/31 10:26:44;;;;;;;;;21.75;16.75;;;;;;;;5123668;27;45414;-77
2022/03/31 10:29:11;;;;;;;;;10.50;10.00;;;;;;;;5122975;27;46102;-77
2022/03/31 10:31:37;;;;;;;;;15.25;14.75;;;;;;;;5124321;27;46507;-79
2022/03/31 10:34:03;;;;;;;;;17.75;15.50;;;;;;;;5118290;27;45304;-78
2022/03/31 10:36:39;;;;;;;;;14.75;13.75;;;;;;;;5084061;27;45272;-77
2022/03/31 10:39:06;;;;;;;;;22.50;17.00;;;;;;;;5081370;28;46412;-77
2022/03/31 10:41:38;;;;;;;;;16.25;15.75;;;;;;;;5082676;28;47297;-78
2022/03/31 10:44:13;;;;;;;;;12.00;11.00;;;;;;;;5086121;27;45335;-77
2022/03/31 10:46:39;;;;;;;;;19.25;15.75;;;;;;;;5083537;28;45404;-77
2022/03/31 10:49:10;;;;;;;;;22.50;20.00;;;;;;;;5085045;28;45536;-78
2022/03/31 10:51:36;;;;;;;;;22.50;20.75;;;;;;;;5083125;27;45271;-79
2022/03/31 10:54:02;;;;;;;;;16.00;13.25;;;;;;;;5082797;27;45590;-77
2022/03/31 10:56:29;;;;;;;;;17.50;17.50;;;;;;;;5081374;28;45335;-78
2022/03/31 10:58:55;;;;;;;;;19.25;17.75;;;;;;;;5082391;27;45298;-77
2022/03/31 11:01:21;;;;;;;;;20.50;18.25;;;;;;;;5082216;27;45435;-78
2022/03/31 11:03:47;;;;;;;;;9.50;9.50;;;;;;;;5080912;28;46079;-77
2022/03/31 11:06:13;;;;;;;;;20.50;20.50;;;;;;;;5082322;27;45270;-77
2022/03/31 11:08:39;;;;;;;;;18.50;17.50;;;;;;;;5080797;28;46378;-77
2022/03/31 11:11:05;;;;;;;;;21.50;19.00;;;;;;;;5082678;27;46356;-78
2022/03/31 11:13:31;;;;;;;;;23.00;19.50;;;;;;;;5086868;27;45377;-78
2022/03/31 11:15:56;;;;;;;;;19.00;19.00;;;;;;;;5084932;27;45470;-79
2022/03/31 11:18:22;;;;;;;;;18.50;17.00;;;;;;;;5081293;27;45330;-79
2022/03/31 11:21:00;;;;;;;;;24.75;23.00;;;;;;;;5080668;27;49085;-79
2022/03/31 11:23:26;;;;;;;;;19.50;18.25;;;;;;;;5080476;28;45293;-78
2022/03/31 11:25:52;;;;;;;;;23.50;19.50;;;;;;;;5082008;27;45223;-77
2022/03/31 11:28:18;;;;;;;;;15.75;15.75;;;;;;;;5080328;27;45281;-78
2022/03/31 11:30:44;;;;;;;;;10.75;10.75;;;;;;;;5080319;28;47067;-78
2022/03/31 11:33:10;;;;;;;;;13.33;13.33;;;;;;;;5080666;28;45857;-80
2022/03/31 11:35:36;;;;;;;;;13.25;11.75;;;;;;;;5082431;27;45349;-78
2022/03/31 11:38:03;;;;;;;;;14.00;13.00;;;;;;;;5081619;27;45412;-81
2022/03/31 11:40:30;;;;;;;;;14.00;13.00;;;;;;;;5081970;27;46144;-80
2022/03/31 11:42:57;;;;;;;;;13.67;11.00;;;;;;;;5080725;28;45628;-78
2022/03/31 11:45:22;;;;;;;;;8.33;6.33;;;;;;;;5087040;27;45291;-80
2022/03/31 11:48:04;;;;;;;;;11.33;10.00;;;;;;;;5080677;28;45594;-79
2022/03/31 11:50:30;;;;;;;;;12.33;12.33;;;;;;;;5081733;28;47950;-79
2022/03/31 11:52:56;;;;;;;;;13.00;12.00;;;;;;;;5083188;28;45439;-83
2022/03/31 11:55:21;;;;;;;;;11.00;11.00;;;;;;;;5086913;27;45306;-81
2022/03/31 11:57:54;;;;;;;;;11.67;11.67;;;;;;;;5083125;28;46427;-80
2022/03/31 12:00:20;;;;;;;;;14.25;13.00;;;;;;;;5084516;28;47312;-80
2022/03/31 12:02:59;;;;;;;;;13.00;12.50;;;;;;;;5080405;28;45253;-79
2022/03/31 12:05:25;;;;;;;;;16.75;15.50;;;;;;;;5081367;28;45331;-79
2022/03/31 12:07:51;;;;;;;;;17.00;15.00;;;;;;;;5081973;28;45344;-78
2022/03/31 12:10:18;;;;;;;;;16.50;14.25;;;;;;;;5081387;27;46338;-80
2022/03/31 12:12:48;;;;;;;;;14.75;14.75;;;;;;;;5081015;28;46002;-78
2022/03/31 12:15:18;;;;;;;;;14.00;13.00;;;;;;;;5093292;27;45417;-79
2022/03/31 12:17:43;;;;;;;;;16.33;15.00;;;;;;;;5122481;27;45254;-77
2022/03/31 12:20:12;;;;;;;;;18.25;18.25;;;;;;;;5128538;27;48678;-80
2022/03/31 12:22:37;;;;;;;;;20.25;19.75;;;;;;;;5125250;27;45400;-79
2022/03/31 12:25:03;;;;;;;;;18.00;15.67;;;;;;;;5127123;27;45530;-84
2022/03/31 12:27:28;;;;;;;;;15.33;14.67;;;;;;;;5089378;27;45262;-82
2022/03/31 12:29:58;;;;;;;;;11.33;11.33;;;;;;;;5099989;27;46922;-80
2022/03/31 12:32:23;;;;;;;;;12.00;11.00;;;;;;;;5106288;27;45325;-79
2022/03/31 12:34:56;;;;;;;;;15.00;15.00;;;;;;;;5102426;27;45917;-80
2022/03/31 12:37:29;;;;;;;;;12.00;10.33;;;;;;;;5107589;27;45855;-79
2022/03/31 12:39:55;;;;;;;;;10.67;10.67;;;;;;;;5109253;27;45481;-79
2022/03/31 12:42:20;;;;;;;;;9.67;7.00;;;;;;;;5107808;27;45934;-81
2022/03/31 12:44:45;;;;;;;;;7.67;7.67;;;;;;;;5107771;27;45314;-80
2022/03/31 12:47:13;;;;;;;;;7.00;7.00;;;;;;;;5104084;27;45385;-80
2022/03/31 12:49:39;;;;;;;;;7.67;7.67;;;;;;;;5103407;27;48557;-81
2022/03/31 12:52:15;;;;;;;;;10.67;9.67;;;;;;;;5105601;27;45637;-81
2022/03/31 12:54:40;;;;;;;;;7.00;7.00;;;;;;;;5101957;27;45207;-81
2022/03/31 12:57:06;;;;;;;;;5.00;5.00;;;;;;;;5103617;27;45315;-80
2022/03/31 12:59:33;;;;;;;;;7.00;7.00;;;;;;;;5103124;27;48379;-82
2022/03/31 13:02:08;;;;;;;;;8.00;8.00;;;;;;;;5108342;27;45328;-81
2022/03/31 13:04:40;;;;;;;;;7.67;7.67;;;;;;;;5103433;27;45337;-80
2022/03/31 13:07:09;;;;;;;;;14.33;11.00;;;;;;;;5101107;27;46633;-80
2022/03/31 13:09:34;;;;;;;;;9.00;9.00;;;;;;;;5094138;27;48407;-82
2022/03/31 13:12:02;;;;;;;;;9.00;9.00;;;;;;;;5097736;27;45356;-84
2022/03/31 13:14:30;;;;;;;;;12.00;12.00;;;;;;;;5088342;27;45432;-84
2022/03/31 13:16:55;;;;;;;;;15.00;12.00;;;;;;;;5121952;27;45747;-82
2022/03/31 13:19:21;;;;;;;;;10.00;9.33;;;;;;;;5123369;27;45255;-83
2022/03/31 13:21:46;;;;;;;;;12.00;11.67;;;;;;;;5119922;27;45306;-83
2022/03/31 13:24:13;;;;;;;;;10.33;9.00;;;;;;;;5082417;27;45264;-84
2022/03/31 13:26:38;;;;;;;;;12.00;12.00;;;;;;;;5080341;27;45561;-83
2022/03/31 13:29:04;;;;;;;;;10.33;10.33;;;;;;;;5078963;28;48288;-82
2022/03/31 13:31:30;;;;;;;;;12.33;12.33;;;;;;;;5079431;28;45297;-83
2022/03/31 13:33:55;;;;;;;;;12.00;10.33;;;;;;;;5080579;27;45413;-84
2022/03/31 13:36:20;;;;;;;;;10.33;10.33;;;;;;;;5083900;27;45421;-82
2022/03/31 13:38:45;;;;;;;;;11.00;11.00;;;;;;;;5082189;27;47315;-84
2022/03/31 13:41:10;;;;;;;;;10.67;10.33;;;;;;;;5081668;27;45529;-82
2022/03/31 13:43:36;;;;;;;;;15.33;13.67;;;;;;;;5081026;27;45341;-83
2022/03/31 13:46:02;;;;;;;;;14.33;12.67;;;;;;;;5079319;28;46190;-80
2022/03/31 13:48:27;;;;;;;;;10.33;10.33;;;;;;;;5081943;27;46003;-80
2022/03/31 13:50:54;;;;;;;;;11.33;11.33;;;;;;;;5082267;27;45280;-84
2022/03/31 13:56:03;;;;;;;;;15.00;15.00;;;;;;;;5083341;28;45377;-80
2022/03/31 14:01:19;;;;;;;;;13.00;12.67;;;;;;;;5084623;27;45525;-81
2022/03/31 14:03:45;;;;;;;;;14.33;13.67;;;;;;;;5081359;27;45404;-81
2022/03/31 14:06:13;;;;;;;;;13.00;13.00;;;;;;;;5080242;28;45339;-83
2022/03/31 14:08:38;;;;;;;;;9.33;9.00;;;;;;;;5078025;28;46130;-83
2022/03/31 14:11:05;;;;;;;;;13.00;13.00;;;;;;;;5080347;27;45475;-84
2022/03/31 14:13:30;;;;;;;;;12.33;12.00;;;;;;;;5083555;27;45262;-82
2022/03/31 14:15:56;;;;;;;;;12.67;10.67;;;;;;;;5096231;27;45147;-80
2022/03/31 14:18:21;;;;;;;;;11.00;11.00;;;;;;;;5100265;27;45205;-81
2022/03/31 14:20:46;;;;;;;;;11.00;9.33;;;;;;;;5103251;27;45282;-80
2022/03/31 14:23:11;;;;;;;;;10.00;10.00;;;;;;;;5102393;27;45277;-81